This is the latest recevied weather packets stored in our database for station/object N0MPM-4. If no packets are shown the sender has not sent any weather packets the latest 1 day(s).
| Time | Temp. | Humidity | Pressure | Rain* | Wind** | Luminosity | Snow |
|---|---|---|---|---|---|---|---|
| 1778081976 | 10.56° C | 45% | 1018.6 hPa | 0 mm | - | - | - |
| 1778081676 | 10.56° C | 46% | 1018.6 hPa | 0 mm | - | - | - |
| 1778081376 | 10.56° C | 42% | 1018.7 hPa | 0 mm | - | - | - |
| 1778081076 | 10° C | 45% | 1018.7 hPa | 0 mm | - | - | - |
| 1778080776 | 10° C | 44% | 1018.8 hPa | 0 mm | - | - | - |
| 1778080476 | 10° C | 43% | 1018.7 hPa | 0 mm | - | - | - |
| 1778080176 | 10° C | 46% | 1018.7 hPa | 0 mm | - | - | - |
| 1778079876 | 10.56° C | 44% | 1018.6 hPa | 0 mm | - | - | - |
| 1778079576 | 10° C | 48% | 1018.7 hPa | 0 mm | - | - | - |
| 1778079276 | 10° C | 46% | 1018.6 hPa | 0 mm | - | - | - |
| 1778078976 | 10° C | 45% | 1018.6 hPa | 0 mm | - | - | - |
| 1778078676 | 10° C | 44% | 1018.6 hPa | 0 mm | - | - | - |
| 1778078076 | 10° C | 51% | 1018.7 hPa | 0 mm | - | - | - |
| 1778077476 | 10.56° C | 50% | 1018.5 hPa | 0 mm | - | - | - |
| 1778076576 | 9.44° C | 49% | 1018.3 hPa | 0 mm | - | - | - |
| 1778076276 | 10° C | 52% | 1018.3 hPa | 0 mm | - | - | - |
| 1778075976 | 10° C | 54% | 1018.3 hPa | 0 mm | - | - | - |
| 1778075376 | 8.89° C | 58% | 1018.2 hPa | 0 mm | - | - | - |
| 1778074176 | 6.67° C | 58% | 1018.1 hPa | 0 mm | - | - | - |
| 1778073876 | 6.67° C | 60% | 1018 hPa | 0 mm | - | - | - |
| 1778068177 | 3.33° C | 72% | 1017 hPa | 0 mm | - | - | - |
| 1778067877 | 3.33° C | 72% | 1016.9 hPa | 0 mm | - | - | - |
| 1778067577 | 2.78° C | 72% | 1016.8 hPa | 0 mm | - | - | - |
| 1778067277 | 2.78° C | 72% | 1016.6 hPa | 0 mm | - | - | - |
| 1778066977 | 2.78° C | 72% | 1016.6 hPa | 0 mm | - | - | - |
* Rain latest hour (hover to see other rain measurements)
** Current wind speed in m/s (hover to see current wind gust speed)